Home > Products > Valid Products > MTR

000
SAUS41 KOKX 161252
MTRNYC
METAR KNYC 161251Z AUTO 35008KT 300V030 10SM CLR 01/M09 A3030 RMK
AO2 SLP252 T00061089





000
SAUS41 KOKX 161155
MTRMTP
METAR KMTP 161154Z AUTO 32014G28KT 02/M06 A3018 RMK AO1 PK WND
32028/1151 SLP220 60028 70168 T00171056 10033 20011 51075





000
SAUS41 KOKX 161152
MTRNYC
METAR KNYC 161151Z AUTO VRB05G18KT 10SM CLR 00/M09 A3026 RMK AO2
SLP239 70069 T00001089 10017 21006 51055





000
SAUS41 KOKX 161055
MTRMTP
METAR KMTP 161054Z AUTO 31015G23KT 02/M04 A3013 RMK AO1 SLP201
T00171044





000
SAUS41 KOKX 161053
MTRNYC
METAR KNYC 161051Z AUTO VRB04G16KT 10SM BKN039 00/M09 A3024 RMK AO2
PRESRR SLP232 T00001089





000
SAUS41 KOKX 160955
MTRMTP
METAR KMTP 160954Z AUTO 32016G25KT 02/M04 A3004 RMK AO1 PK WND
32027/0903 SLP171 T00171039





000
SAUS41 KOKX 160953
MTRNYC
METAR KNYC 160951Z AUTO VRB04G15KT 10SM FEW038 00/M08 A3016 RMK AO2
SLP204 T00001083





000
SAUS41 KOKX 160855
MTRMTP
METAR KMTP 160854Z AUTO 31016G28KT 02/M02 A2996 RMK AO1 PK WND
32028/0847 SLP145 P0002 60028 T00171022 51041





000
SAUS41 KOKX 160852
MTRNYC
METAR KNYC 160851Z AUTO 31008G18KT 280V360 10SM BKN036 01/M06 A3010
RMK AO2 SLP184 T00111061 53041





000
SAUS41 KOKX 160755
MTRMTP
METAR KMTP 160754Z AUTO 32015KT 01/M01 A2991 RMK AO1 PK WND
31027/0709 SLP127 P0018 T00111006





000
SAUS41 KOKX 160752
MTRNYC
METAR KNYC 160751Z AUTO 31010G20KT 10SM BKN036 01/M05 A3007 RMK AO2
PK WND 30027/0706 SLP173 T00111050





000
SAUS41 KOKX 160655
MTRMTP
METAR KMTP 160654Z AUTO 32018G29KT 02/M01 A2991 RMK AO1 PK WND
30029/0652 PRESRR SLP127 P0008 T00171006





000
SAUS41 KOKX 160653
MTRNYC
METAR KNYC 160651Z AUTO 31009G19KT 10SM BKN038 02/M04 A2998 RMK AO2
SLP146 T00171039





000
SAUS41 KOKX 160555
MTRMTP
METAR KMTP 160554Z AUTO 32012G25KT 03/01 A2984 RMK AO1 PK WND
31027/0537 SLP104 P0007 60062 T00330006 10139 20028 51027





000
SAUS41 KOKX 160553
MTRNYC
METAR KNYC 160551Z AUTO 31010G20KT 10SM FEW033 BKN080 OVC100 02/M03
A2998 RMK AO2 UPB08E09B47E50RAB09E47SNE08 SLP142 P0006 60052
T00171028 10067 20006 51027





000
SAUS41 KOKX 160455
MTRMTP
METAR KMTP 160454Z AUTO 32017G25KT 04/02 A2983 RMK AO1 PK WND
30026/0401 SLP101 P0006 T00390017 401390033





000
SAUS41 KOKX 160453
MTRNYC
METAR KNYC 160451Z AUTO 31010G19KT 280V350 5SM -SN FEW011 BKN048
OVC070 01/M02 A2995 RMK AO2 RAB36E46SNE36B46 SLP134 P0013 T00111017
401720006





000
SAUS41 KOKX 160439
MTRNYC
SPECI KNYC 160437Z AUTO 31013G19KT 280V340 3SM RA BR FEW006 BKN030
OVC075 01/M01 A2996 RMK AO2 RAB36SNE36 P0011 T00061011





000
SAUS41 KOKX 160435
MTRNYC
SPECI KNYC 160433Z AUTO 31011G19KT 280V340 2SM -SN BR SCT006 BKN025
OVC075 01/M01 A2995 RMK AO2 P0010 T00061011





000
SAUS41 KOKX 160431
MTRNYC
SPECI KNYC 160428Z AUTO VRB05G22KT 1 1/4SM -SN BR SCT006 BKN011
OVC021 01/M01 A2994 RMK AO2 P0008 T00061011





000
SAUS41 KOKX 160418
MTRNYC
SPECI KNYC 160416Z AUTO 31008G24KT 270V340 3/4SM -SN BR OVC007
01/M01 A2994 RMK AO2 P0005 T00061011





000
SAUS41 KOKX 160401
MTRNYC
SPECI KNYC 160400Z AUTO 31009G18KT 1 3/4SM -SN BR BKN007 OVC014
01/M01 A2994 RMK AO2 P0001 T00111006





000
SAUS41 KOKX 160355
MTRMTP
METAR KMTP 160354Z AUTO 31017G26KT 04/02 A2980 RMK AO1 PK WND
31029/0301 SLP092 P0002 T00390022





000
SAUS41 KOKX 160353
MTRNYC
METAR KNYC 160351Z AUTO 30006KT 2 1/2SM -SN BR SCT008 OVC014 02/M01
A2992 RMK AO2 SLP124 P0006 T00171006





000
SAUS41 KOKX 160345
MTRNYC
SPECI KNYC 160344Z AUTO VRB04KT 3SM -SN BR SCT008 OVC014 02/M01
A2993 RMK AO2 P0005 T00171006





000
SAUS41 KOKX 160331
MTRNYC
SPECI KNYC 160330Z AUTO VRB04KT 3SM -SN BR BKN006 BKN011 OVC016
02/00 A2992 RMK AO2 P0004 T00170000





000
SAUS41 KOKX 160321
MTRNYC
SPECI KNYC 160320Z AUTO 30007KT 250V340 2 1/2SM -SN BR OVC006 02/00
A2992 RMK AO2 P0004 T00170000





000
SAUS41 KOKX 160309
MTRNYC
SPECI KNYC 160308Z AUTO VRB05G15KT 1 3/4SM -SN BR OVC006 01/M01
A2991 RMK AO2 CIG 005V011 P0002 T00111006





000
SAUS41 KOKX 160255
MTRMTP
METAR KMTP 160254Z AUTO 31018G28KT 06/04 A2976 RMK AO1 PK WND
30028/0254 SLP077 P0004 60047 T00560039 53040





000
SAUS41 KOKX 160252
MTRNYC
METAR KNYC 160251Z AUTO 31008G16KT 5SM -SN BR OVC006 02/00 A2990 RMK
AO2 RAE31SNB31 SLP115 P0010 60027 T00170000 53029





000
SAUS41 KOKX 160227
MTRNYC
SPECI KNYC 160225Z AUTO 31008G16KT 280V340 4SM RA BR BKN009 OVC055
02/01 A2988 RMK AO2 PRESRR P0006 T00220006





000
SAUS41 KOKX 160213
MTRNYC
SPECI KNYC 160211Z AUTO 31008G18KT 5SM RA BR SCT009 BKN012 OVC060
03/01 A2986 RMK AO2 P0003 T00280006





000
SAUS41 KOKX 160205
MTRNYC
SPECI KNYC 160204Z AUTO 31010G23KT 5SM -RA BKN012 BKN025 OVC060
03/01 A2985 RMK AO2 P0001 T00330006





000
SAUS41 KOKX 160155
MTRMTP
METAR KMTP 160154Z AUTO 30013G20KT 08/07 A2970 RMK AO1 PRESRR SLP057
P0028 T00780067





000
SAUS41 KOKX 160153
MTRNYC
METAR KNYC 160151Z AUTO 31015G25KT 4SM RA SCT014 BKN060 OVC080 04/01
A2985 RMK AO2 SLP100 P0009 T00390011





000
SAUS41 KOKX 160116 COR
MTRNYC
SPECI KNYC 160111Z AUTO 31011G24KT 290V350 4SM RA SCT017 OVC050
04/02 A2983 RMK AO2 PRESRR P0002 T00440017





000
SAUS41 KOKX 160056
MTRMTP
METAR KMTP 160054Z AUTO 22011G20KT 13/13 A2965 RMK AO1 PK WND
20027/0040 WSHFT 0030 SLP039 P0015 T01330128





000
SAUS41 KOKX 160053
MTRNYC
METAR KNYC 160051Z AUTO 31010G26KT 290V040 5SM RA BKN015 BKN044
OVC050 05/02 A2981 RMK AO2 PK WND 32026/0021 SLP085 P0008 T00500022





000
SAUS41 KOKX 160051
MTRMTP
SPECI KMTP 160050Z AUTO 21009G24KT 13/13 A2964 RMK AO1 PK WND
20027/0040 WSHFT 0030 P0010





000
SAUS41 KOKX 160049
MTRNYC
SPECI KNYC 160047Z AUTO 31012G21KT 6SM -RA BKN017 OVC044 05/02 A2981
RMK AO2 PK WND 32026/0021 P0007





000
SAUS41 KOKX 160007
MTRNYC
SPECI KNYC 160005Z AUTO 32008G21KT 280V020 4SM -RA BKN014 OVC040
07/04 A2976 RMK AO2 P0001 T00670039





000
SAUS41 KOKX 160002
MTRNYC
SPECI KNYC 160001Z AUTO 32011G21KT 4SM -RA SCT014 OVC040 07/04 A2975
RMK AO2 P0001 T00670039





000
SAUS41 KOKX 152355
MTRMTP
METAR KMTP 152354Z AUTO 18013G25KT 13/12 A2962 RMK AO1 SLP031 P0006
60050 T01280117 10133 20122 56019





000
SAUS41 KOKX 152353
MTRNYC
METAR KNYC 152351Z AUTO VRB06KT 6SM -RA BR BKN016 OVC039 07/04 A2975
RMK AO2 SLP065 P0003 60008 T00670044 10172 20067 51035





000
SAUS41 KOKX 152305
MTRNYC
SPECI KNYC 152304Z AUTO 31010G18KT 9SM -RA BKN013 OVC039 08/06 A2970
RMK AO2 P0000 T00830061





000
SAUS41 KOKX 152255
MTRMTP
METAR KMTP 152254Z AUTO 18010G20KT 13/12 A2964 RMK AO1 SLP035 P0006
T01280117





000
SAUS41 KOKX 152253
MTRNYC
METAR KNYC 152251Z AUTO 34009KT 290V020 9SM -RA FEW013 SCT020 OVC036
09/07 A2969 RMK AO2 RAB10 SLP045 P0000 T00890067





000
SAUS41 KOKX 152243
MTRNYC
SPECI KNYC 152242Z AUTO VRB05G19KT 8SM -RA FEW015 FEW020 OVC036
09/06 A2969 RMK AO2 RAB10 P0000 T00890061





000
SAUS41 KOKX 152229
MTRNYC
SPECI KNYC 152228Z AUTO 31011G22KT 270V340 5SM -RA SCT013 BKN018
OVC033 09/06 A2969 RMK AO2 RAB10 PRESRR P0000 T00890061





000
SAUS41 KOKX 152209
MTRNYC
SPECI KNYC 152208Z AUTO 31014G21KT 10SM OVC011 10/07 A2967 RMK AO2
PRESRR T01000072





000
SAUS41 KOKX 152155
MTRMTP
METAR KMTP 152154Z AUTO 18011G22KT 12/11 A2966 RMK AO1 PK WND
20026/2056 SLP042 P0013 T01220111





000
SAUS41 KOKX 152153
MTRNYC
METAR KNYC 152151Z AUTO 30009KT 8SM OVC009 11/09 A2964 RMK AO2
RAB19E51 SLP029 P0002 T01110089





000
SAUS41 KOKX 152137
MTRNYC
SPECI KNYC 152135Z AUTO 30008KT 270V330 3SM -RA BR BKN011 OVC018
12/09 A2963 RMK AO2 RAB19 P0002 T01170094





000
SAUS41 KOKX 152130
MTRNYC
SPECI KNYC 152128Z AUTO 35008KT 2 1/2SM RA BKN012 OVC018 12/09 A2962
RMK AO2 RAB19 P0001 T01220094





000
SAUS41 KOKX 152124 COR
MTRNYC
SPECI KNYC 152119Z AUTO VRB05G18KT 9SM -RA SCT014 BKN018 OVC043
13/10 A2963 RMK AO2 RAB19 PRESRR P0000 T01280100





000
SAUS41 KOKX 152115 COR
MTRNYC
SPECI KNYC 152110Z AUTO 32010G24KT 270V360 10SM BKN014 BKN027 OVC065
14/10 A2961 RMK AO2 T01390100





000
SAUS41 KOKX 152055
MTRMTP
METAR KMTP 152054Z AUTO 20014G21KT 160V230 13/12 A2968 RMK AO1
SLP050 P0020 60025 T01280117 56010





000
SAUS41 KOKX 152052
MTRNYC
METAR KNYC 152051Z AUTO 19003KT 10SM BKN065 OVC080 17/14 A2958 RMK
AO2 SLP006 60003 T01720139 55009





000
SAUS41 KOKX 152030
MTRNYC
SPECI KNYC 152029Z AUTO VRB03KT 10SM FEW011 SCT014 OVC080 17/14
A2957 RMK AO2 T01670139





000
SAUS41 KOKX 152027 COR
MTRNYC
SPECI KNYC 152022Z AUTO 10SM BKN011 BKN018 OVC080 17/14 A2957 RMK
AO2 CIG 007V015 T01670139





000
SAUS41 KOKX 151955
MTRMTP
METAR KMTP 151954Z AUTO 19014G26KT 13/11 A2969 RMK AO1 PK WND
17027/1902 PRESRR SLP053 P0002 T01280111





000
SAUS41 KOKX 151952
MTRNYC
METAR KNYC 151951Z AUTO 18004KT 7SM OVC007 15/13 A2956 RMK AO2 RAE18
CIG 005V011 SLP000 P0002 T01500133





000
SAUS41 KOKX 151914
MTRNYC
SPECI KNYC 151913Z AUTO 17009G15KT 4SM -RA BR BKN009 BKN055 OVC100
14/13 A2956 RMK AO2 P0002 T01440128





000
SAUS41 KOKX 151906 COR
MTRNYC
SPECI KNYC 151902Z AUTO 17007KT 4SM -RA BR FEW008 BKN017 OVC100
14/13 A2957 RMK AO2 P0001 T01440128





000
SAUS41 KOKX 151905
MTRNYC
SPECI KNYC 151902Z AUTO 17007KT 4SM -RA BR FEW008 BKN017 OVC100
14/13 A2957 RMK AO2 P0001 T01440128





000
SAUS41 KOKX 151855
MTRMTP
METAR KMTP 151854Z AUTO 17016G27KT 13/12 A2968 RMK AO1 PK WND
18028/1843 SLP051 P0003 T01280117





000
SAUS41 KOKX 151853
MTRNYC
METAR KNYC 151851Z AUTO 17005KT 6SM -RA BR BKN008 OVC016 14/13 A2958
RMK AO2 RAB1758E28B50 CIG 006V011 SLP006 P0001 T01440133





000
SAUS41 KOKX 151755
MTRMTP
METAR KMTP 151754Z AUTO 17013G22KT 13/11 A2971 RMK AO1 SLP061 P0024
60028 T01280111 10133 20117 57032





000
SAUS41 KOKX 151753
MTRNYC
METAR KNYC 151751Z AUTO 17011G19KT 6SM BR OVC005 15/13 A2960 RMK AO2
RAB1654E04 SLP016 P0001 60009 T01500133 10161 20150 58027





000
SAUS41 KOKX 151656 COR
MTRNYC
METAR KNYC 151651Z AUTO 18010G22KT 140V210 6SM BR OVC006 15/13 A2962
RMK AO2 RAE29 SLP023 P0006 T01500133





000
SAUS41 KOKX 151655
MTRMTP
METAR KMTP 151654Z AUTO 17015G26KT 13/11 A2975 RMK AO1 PK WND
17027/1618 SLP074 P0004 T01280111





000
SAUS41 KOKX 151608
MTRNYC
SPECI KNYC 151606Z AUTO 18009G19KT 3SM -RA BR OVC007 15/13 A2966 RMK
AO2 P0004 T01500133





000
SAUS41 KOKX 151555
MTRNYC
SPECI KNYC 151553Z AUTO VRB06G18KT 1 3/4SM RA BR OVC006 15/13 A2967
RMK AO2 VIS 3/4V5 P0000 T01500133





000
SAUS41 KOKX 151555
MTRMTP
METAR KMTP 151554Z AUTO 17012G24KT 13/10 A2977 RMK AO1 SLP080
T01330100





000
SAUS41 KOKX 151552
MTRNYC
METAR KNYC 151551Z AUTO 18009G18KT 3SM -RA BR OVC006 15/13 A2967 RMK
AO2 RAB07E17B49 SLP038 P0001 T01500133





000
SAUS41 KOKX 151455
MTRMTP
METAR KMTP 151454Z AUTO 17012G21KT 13/10 A2981 RMK AO1 SLP093
T01280100 56016





000
SAUS41 KOKX 151453
MTRNYC
METAR KNYC 151451Z AUTO 6SM BR OVC007 16/14 A2968 RMK AO2 RAE00
SLP043 P0000 60001 T01560139 58025





000
SAUS41 KOKX 151355
MTRMTP
METAR KMTP 151354Z AUTO 17015G24KT 13/11 A2983 RMK AO1 PK WND
17026/1317 SLP100 T01330111





000
SAUS41 KOKX 151352
MTRNYC
METAR KNYC 151351Z AUTO 18007G16KT 3SM -RA BR OVC008 16/14 A2972 RMK
AO2 RAE1258B46 CIG 007V012 SLP055 P0001 T01560139





000
SAUS41 KOKX 151255
MTRMTP
METAR KMTP 151254Z AUTO 18013G27KT 13/12 A2983 RMK AO1 PK WND
17027/1252 SLP101 T01280117





000
SAUS41 KOKX 151252
MTRNYC
METAR KNYC 151251Z AUTO 17011G19KT 5SM -RA BR OVC007 16/14 A2973 RMK
AO2 RAB48 SLP059 P0000 T01560139





000
SAUS41 KOKX 151156 COR
MTRNYC
METAR KNYC 151151Z AUTO 10SM OVC007 16/14 A2976 RMK AO2 SLP068 60007
70007 T01560139 10156 20139 56019





000
SAUS41 KOKX 151155
MTRMTP
METAR KMTP 151154Z AUTO 17010KT 12/11 A2986 RMK AO1 SLP109 60003
70003 T01170106 10128 20111 58015





000
SAUS41 KOKX 151103 COR
MTRNYC
SPECI KNYC 151058Z AUTO 17011G22KT 9SM OVC005 15/14 A2977 RMK AO2
T01500139





000
SAUS41 KOKX 151057 COR
MTRMTP
METAR KMTP 151054Z AUTO 17011G21KT 12/11 A2987 RMK AO1 SLP116 P0001
T01170106





000
SAUS41 KOKX 151056 COR
MTRMTP
METAR KMTP 151054Z AUTO 17011G21KT 12/11 A2987 RMK AO1 SLP116 P0001
T01170106





000
SAUS41 KOKX 151052
MTRNYC
METAR KNYC 151051Z AUTO 18007G22KT 160V220 8SM OVC004 15/14 A2977
RMK AO2 RAB0954E15 SLP071 P0003 T01500139





000
SAUS41 KOKX 151039 COR
MTRNYC
SPECI KNYC 151034Z AUTO 17010G16KT 7SM OVC004 15/13 A2978 RMK AO2
RAB0954E15 P0003 T01500133





000
SAUS41 KOKX 151017
MTRNYC
SPECI KNYC 151016Z AUTO 17008G15KT 7SM OVC006 14/13 A2979 RMK AO2
RAB0954E15 P0003 T01440128





000
SAUS41 KOKX 151008
MTRNYC
SPECI KNYC 151006Z AUTO 15008KT 110V170 2SM -RA BR OVC008 14/13
A2978 RMK AO2 RAB0954 P0003 T01440133





000
SAUS41 KOKX 150955
MTRMTP
METAR KMTP 150954Z AUTO 18012G25KT 12/11 A2989 RMK AO1 SLP120 P0001
T01220111





000
SAUS41 KOKX 150952
MTRNYC
METAR KNYC 150951Z AUTO VRB05KT 8SM BKN008 OVC012 14/13 A2979 RMK
AO2 RAE15 CIG 005V010 SLP079 P0004 T01440133





000
SAUS41 KOKX 150921
MTRNYC
SPECI KNYC 150920Z AUTO VRB06KT 8SM BKN009 BKN050 OVC100 15/13 A2981
RMK AO2 RAE15 P0004 T01500133





000
SAUS41 KOKX 150856 COR
MTRNYC
METAR KNYC 150851Z AUTO VRB05KT 4SM -RA BR BKN013 BKN042 OVC085
16/13 A2981 RMK AO2 RAB49 SLP087 P0000 60000 T01560133 55011





000
SAUS41 KOKX 150855
MTRMTP
METAR KMTP 150854Z AUTO 18008KT 12/11 A2990 RMK AO1 SLP124 P0001
60001 T01220111 58015





000
SAUS41 KOKX 150848
MTRNYC
SPECI KNYC 150847Z AUTO 16007G14KT 10SM BKN015 OVC085 16/13 A2981
RMK AO2





000
SAUS41 KOKX 150828
MTRNYC
SPECI KNYC 150827Z AUTO 18005KT 10SM BKN014 15/13 A2982 RMK AO2
T01500128





000
SAUS41 KOKX 150755
MTRMTP
METAR KMTP 150754Z AUTO 18009G17KT 12/10 A2992 RMK AO1 SLP132
T01170100





000
SAUS41 KOKX 150753
MTRNYC
METAR KNYC 150751Z AUTO 17004KT 10SM FEW100 14/12 A2984 RMK AO2
SLP094 T01440117





000
SAUS41 KOKX 150655
MTRMTP
METAR KMTP 150654Z AUTO 17006KT 11/10 A2992 RMK AO1 SLP132 T01110100





000
SAUS41 KOKX 150653
MTRNYC
METAR KNYC 150651Z AUTO 15008KT 10SM FEW095 14/11 A2985 RMK AO2
SLP098 T01390111





000
SAUS41 KOKX 150556
MTRMTP
METAR KMTP 150554Z AUTO 17009KT 12/10 A2994 RMK AO1 SLP139 T01170100
10122 20111 58008





000
SAUS41 KOKX 150553
MTRNYC
METAR KNYC 150551Z AUTO 16006KT 10SM FEW060 15/12 A2985 RMK AO2
SLP098 T01500117 10183 20150 58017





000
SAUS41 KOKX 150455
MTRMTP
METAR KMTP 150454Z AUTO 18009KT 12/11 A2995 RMK AO1 SLP143 T01170106
401500106





000
SAUS41 KOKX 150452
MTRNYC
METAR KNYC 150451Z AUTO 16006KT 10SM CLR 15/12 A2989 RMK AO2 SLP112
T01500117 402390150





000
SAUS41 KOKX 150355
MTRMTP
METAR KMTP 150354Z AUTO 17012G20KT 12/11 A2996 RMK AO1 SLP144
T01220106





000
SAUS41 KOKX 150352
MTRNYC
METAR KNYC 150351Z AUTO 16005KT 10SM CLR 16/12 A2989 RMK AO2 SLP112
T01610117





000
SAUS41 KOKX 150255
MTRMTP
METAR KMTP 150254Z AUTO 18009G18KT 12/10 A2997 RMK AO1 SLP147
T01170100 58007





000
SAUS41 KOKX 150252
MTRNYC
METAR KNYC 150251Z AUTO VRB05KT 10SM CLR 17/12 A2990 RMK AO2 SLP115
T01720117 58003





000
SAUS41 KOKX 150155
MTRMTP
METAR KMTP 150154Z AUTO 18011G19KT 12/09 A2998 RMK AO1 SLP150
T01170094





000
SAUS41 KOKX 150153
MTRNYC
METAR KNYC 150151Z AUTO 19008G16KT 10SM CLR 17/11 A2991 RMK AO2
SLP118 T01720111





000
SAUS41 KOKX 150055
MTRMTP
METAR KMTP 150054Z AUTO 18009G19KT 12/09 A2999 RMK AO1 SLP155
T01170094





000
SAUS41 KOKX 150053
MTRNYC
METAR KNYC 150051Z AUTO 18008G16KT 10SM CLR 18/11 A2991 RMK AO2
SLP121 T01780111





000
SAUS41 KOKX 142355
MTRMTP
METAR KMTP 142354Z AUTO 18010G19KT 12/09 A2999 RMK AO1 SLP154
T01170094 10144 20117 55007





000
SAUS41 KOKX 142352
MTRNYC
METAR KNYC 142351Z AUTO 18008KT 10SM CLR 18/11 A2991 RMK AO2 SLP119
T01830106 10239 20183 53002





000
SAUS41 KOKX 142255
MTRMTP
METAR KMTP 142254Z AUTO 18009G19KT 12/09 A2999 RMK AO1 SLP154
T01220094





000
SAUS41 KOKX 142253
MTRNYC
METAR KNYC 142251Z AUTO 18010G26KT 10SM CLR 19/10 A2989 RMK AO2 PK
WND 18026/2245 SLP113 T01890100





000
SAUS41 KOKX 142155
MTRMTP
METAR KMTP 142154Z AUTO 19012G19KT 13/09 A3000 RMK AO1 SLP157
T01280094





000
SAUS41 KOKX 142153
MTRNYC
METAR KNYC 142151Z AUTO 18009G20KT 10SM CLR 21/10 A2990 RMK AO2
SLP115 T02110100





000
SAUS41 KOKX 142055
MTRMTP
METAR KMTP 142054Z AUTO 19010G18KT 13/10 A3001 RMK AO1 SLP161
T01330100 58014





000
SAUS41 KOKX 142052
MTRNYC
METAR KNYC 142051Z AUTO 18007G18KT 10SM CLR 21/10 A2990 RMK AO2
SLP117 T02110100 56019





000
SAUS41 KOKX 141955
MTRMTP
METAR KMTP 141954Z AUTO 20008G19KT 13/10 A3003 RMK AO1 SLP170
T01330100





000
SAUS41 KOKX 141954
MTRNYC
METAR KNYC 141951Z AUTO 18011G19KT 10SM CLR 23/11 A2992 RMK AO2
SLP121 T02280106





000
SAUS41 KOKX 141855
MTRMTP
METAR KMTP 141854Z AUTO 19010G18KT 13/10 A3005 RMK AO1 SLP174
T01330100





000
SAUS41 KOKX 141852
MTRNYC
METAR KNYC 141851Z AUTO 16008G18KT 10SM SCT055 23/11 A2994 RMK AO2
SLP130 T02330106





000
SAUS41 KOKX 141755
MTRMTP
METAR KMTP 141754Z AUTO 19010G19KT 14/10 A3005 RMK AO1 SLP175
T01440100 10150 20111 57014





000
SAUS41 KOKX 141752
MTRNYC
METAR KNYC 141751Z AUTO 18007G17KT 10SM FEW050 22/11 A2996 RMK AO2
SLP136 T02220106 10239 20178 56020





000
SAUS41 KOKX 141655
MTRMTP
METAR KMTP 141654Z AUTO 19012G21KT 13/10 A3006 RMK AO1 SLP179
T01330100





000
SAUS41 KOKX 141652
MTRNYC
METAR KNYC 141651Z AUTO 10SM CLR 22/11 A2998 RMK AO2 SLP142
T02220111





000
SAUS41 KOKX 141555
MTRMTP
METAR KMTP 141554Z AUTO 20014G23KT 14/10 A3008 RMK AO1 PK WND
21027/1500 SLP184 T01390100





000
SAUS41 KOKX 141552
MTRNYC
METAR KNYC 141551Z AUTO 10SM CLR 23/13 A2999 RMK AO2 SLP148
T02330128





000
SAUS41 KOKX 141455
MTRMTP
METAR KMTP 141454Z AUTO 19013G21KT 14/10 A3009 RMK AO1 PK WND
19027/1406 SLP188 T01390100 51002





000
SAUS41 KOKX 141453
MTRNYC
METAR KNYC 141451Z AUTO 21009G17KT 10SM CLR 21/13 A3002 RMK AO2
SLP156 T02110128 58001





000
SAUS41 KOKX 141355
MTRMTP
METAR KMTP 141354Z AUTO 20013G22KT 14/10 A3009 RMK AO1 SLP189
T01440100





000
SAUS41 KOKX 141353
MTRNYC
METAR KNYC 141351Z AUTO VRB03KT 10SM BKN060 19/12 A3003 RMK AO2
SLP159 T01940122





000
SAUS41 KOKX 141255
MTRMTP
METAR KMTP 141254Z AUTO 19012G20KT 12/09 A3009 RMK AO1 SLP188
T01220094





000
SAUS41 KOKX 141253
MTRNYC
METAR KNYC 141251Z AUTO VRB04KT 10SM SCT060 19/12 A3002 RMK AO2
SLP158 T01890117





000
SAUS41 KOKX 141155
MTRMTP
METAR KMTP 141154Z AUTO 20010G18KT 11/09 A3008 RMK AO1 SLP187
T01110094 10133 20106 53005





000
SAUS41 KOKX 141153
MTRNYC
METAR KNYC 141151Z AUTO 19008KT 170V270 10SM CLR 18/12 A3002 RMK AO2
SLP157 T01780117 10183 20161 53002





000
SAUS41 KOKX 141055
MTRMTP
METAR KMTP 141054Z AUTO 20009G16KT 11/09 A3008 RMK AO1 SLP185
T01110094





000
SAUS41 KOKX 141052
MTRNYC
METAR KNYC 141051Z AUTO 19004KT 10SM CLR 17/12 A3002 RMK AO2 SLP155
T01670117





000
SAUS41 KOKX 140955
MTRMTP
METAR KMTP 140954Z AUTO 19009G17KT 11/09 A3007 RMK AO1 SLP183
T01110094





000
SAUS41 KOKX 140952
MTRNYC
METAR KNYC 140951Z AUTO 18004KT 10SM CLR 17/12 A3001 RMK AO2 SLP153
T01670122





000
SAUS41 KOKX 140855
MTRMTP
METAR KMTP 140854Z AUTO 20009G19KT 13/11 A3007 RMK AO1 SLP182
T01280106 58008





000
SAUS41 KOKX 140853
MTRNYC
METAR KNYC 140851Z AUTO VRB04KT 10SM CLR 17/12 A3001 RMK AO2 SLP154
T01670117 58009





000
SAUS41 KOKX 140755
MTRMTP
METAR KMTP 140754Z AUTO 20009G21KT 12/10 A3008 RMK AO1 SLP186
T01170100





000
SAUS41 KOKX 140753
MTRNYC
METAR KNYC 140751Z AUTO 10SM CLR 17/12 A3002 RMK AO2 SLP157
T01720122





000
SAUS41 KOKX 140655
MTRMTP
METAR KMTP 140654Z AUTO 20011G21KT 13/10 A3009 RMK AO1 SLP189
T01280100





000
SAUS41 KOKX 140652
MTRNYC
METAR KNYC 140651Z AUTO 18003KT 10SM CLR 18/12 A3004 RMK AO2 SLP162
T01780122





000
SAUS41 KOKX 140555
MTRMTP
METAR KMTP 140554Z AUTO 20008G16KT 12/10 A3009 RMK AO1 SLP190
T01170100 10122 20106 58001





000
SAUS41 KOKX 140553
MTRNYC
METAR KNYC 140551Z AUTO VRB04KT 10SM CLR 18/12 A3004 RMK AO2 SLP164
T01830117 10217 20183 50001





000
SAUS41 KOKX 140456
MTRMTP
METAR KMTP 140454Z AUTO 20010G22KT 12/10 A3009 RMK AO1 SLP189
T01220100 401390044





000
SAUS41 KOKX 140452
MTRNYC
METAR KNYC 140451Z AUTO VRB03KT 10SM CLR 19/12 A3005 RMK AO2 SLP166
T01890117 402500122





000
SAUS41 KOKX 140355
MTRMTP
METAR KMTP 140354Z AUTO 19008KT 11/09 A3010 RMK AO1 SLP193 T01110089





000
SAUS41 KOKX 140352
MTRNYC
METAR KNYC 140351Z AUTO 19006KT 10SM CLR 19/12 A3004 RMK AO2 SLP164
T01890117





000
SAUS41 KOKX 140255
MTRMTP
METAR KMTP 140254Z AUTO 20009KT 11/09 A3010 RMK AO1 SLP191 T01110094
50004





000
SAUS41 KOKX 140253
MTRNYC
METAR KNYC 140251Z AUTO 10SM CLR 19/11 A3004 RMK AO2 SLP162
T01940106 50005





000
SAUS41 KOKX 140155
MTRMTP
METAR KMTP 140154Z AUTO 19011G19KT 11/09 A3010 RMK AO1 SLP193
T01110094





000
SAUS41 KOKX 140152
MTRNYC
METAR KNYC 140151Z AUTO 21007KT 180V250 10SM CLR 19/10 A3005 RMK AO2
SLP166 T01940100





000
SAUS41 KOKX 140055
MTRMTP
METAR KMTP 140054Z AUTO 19011G18KT 12/09 A3010 RMK AO1 SLP192
T01220094





000
SAUS41 KOKX 140052
MTRNYC
METAR KNYC 140051Z AUTO 18009G16KT 150V220 10SM CLR 20/09 A3004 RMK
AO2 SLP165 T02000094





000
SAUS41 KOKX 132355
MTRMTP
METAR KMTP 132354Z AUTO 19012G19KT 12/09 A3008 RMK AO1 SLP187
T01220094 10139 20111 50001





000
SAUS41 KOKX 132352
MTRNYC
METAR KNYC 132351Z AUTO 19009G16KT 150V230 10SM CLR 22/10 A3002 RMK
AO2 SLP157 T02170100 10250 20211 51008





000
SAUS41 KOKX 132255
MTRMTP
METAR KMTP 132254Z AUTO 19009KT 11/08 A3009 RMK AO1 SLP190 T01110083





000
SAUS41 KOKX 132252
MTRNYC
METAR KNYC 132251Z AUTO 18009KT 10SM CLR 23/11 A3001 RMK AO2 SLP153
T02280106





000
SAUS41 KOKX 132155
MTRMTP
METAR KMTP 132154Z AUTO 19011G18KT 12/08 A3009 RMK AO1 SLP189
T01220083





000
SAUS41 KOKX 132152
MTRNYC
METAR KNYC 132151Z AUTO 18006G15KT 10SM CLR 24/11 A3002 RMK AO2
SLP157 T02390111





000
SAUS41 KOKX 132056
MTRMTP
METAR KMTP 132054Z AUTO 19012G20KT 13/09 A3008 RMK AO1 SLP186
T01280089 58028





000
SAUS41 KOKX 132052
MTRNYC
METAR KNYC 132051Z AUTO 19007G18KT 10SM CLR 24/09 A3000 RMK AO2
SLP149 T02440094 56031





000
SAUS41 KOKX 131955
MTRMTP
METAR KMTP 131954Z AUTO 19012G19KT 14/09 A3011 RMK AO1 SLP195
T01390094





000
SAUS41 KOKX 131952
MTRNYC
METAR KNYC 131951Z AUTO VRB03KT 10SM CLR 23/09 A3003 RMK AO2 SLP158
T02330094





000
SAUS41 KOKX 131855
MTRMTP
METAR KMTP 131854Z AUTO 19010G19KT 13/09 A3014 RMK AO1 SLP207
T01330094





000
SAUS41 KOKX 131853
MTRNYC
METAR KNYC 131851Z AUTO 17007G14KT 10SM CLR 22/10 A3006 RMK AO2
SLP170 T02220100





000
SAUS41 KOKX 131755
MTRMTP
METAR KMTP 131754Z AUTO 17012G20KT 13/08 A3016 RMK AO1 SLP214
T01330083 10133 20094 56019





000
SAUS41 KOKX 131752
MTRNYC
METAR KNYC 131751Z AUTO VRB06KT 10SM CLR 22/11 A3009 RMK AO2 SLP180
T02170106 10217 20133 58025





000
SAUS41 KOKX 131655
MTRMTP
METAR KMTP 131654Z AUTO 17013G22KT 13/08 A3018 RMK AO1 SLP221
T01280083





000
SAUS41 KOKX 131653
MTRNYC
METAR KNYC 131651Z AUTO 16004KT 10SM CLR 21/11 A3012 RMK AO2 SLP190
T02060106





000
SAUS41 KOKX 131555
MTRMTP
METAR KMTP 131554Z AUTO 17011G20KT 12/07 A3019 RMK AO1 SLP222
T01170072





000
SAUS41 KOKX 131553
MTRNYC
METAR KNYC 131551Z AUTO 18003KT 9SM CLR 19/11 A3014 RMK AO2 SLP196
T01890106





000
SAUS41 KOKX 131456
MTRMTP
METAR KMTP 131454Z AUTO 16007G16KT 11/07 A3022 RMK AO1 SLP232
T01110072 58012





000
SAUS41 KOKX 131452
MTRNYC
METAR KNYC 131451Z AUTO 16005KT 8SM CLR 16/11 A3016 RMK AO2 SLP205
T01610106 58013





000
SAUS41 KOKX 131355
MTRMTP
METAR KMTP 131354Z AUTO 17007G15KT 140V200 11/07 A3023 RMK AO1
SLP237 T01110067





000
SAUS41 KOKX 131353
MTRNYC
METAR KNYC 131351Z AUTO VRB04KT 8SM FEW120 14/10 A3018 RMK AO2
SLP212 T01440100





    US Dept of Commerce
    National Oceanic and Atmospheric Administration
    National Weather Service
    1325 East West Highway
    Silver Spring, MD 20910
    Page Author: NWS Internet Services Team
Disclaimer
Information Quality
Credits
Glossary
Privacy Policy
Freedom of Information Act (FOIA)
About Us
Career Opportunities